sensor_id;sensor_type;location;lat;lon;timestamp;P1;durP1;ratioP1;P2;durP2;ratioP2
9076;SDS011;4574;51.072;17.174;2023-09-08T00:00:48;8.17;;;6.07;;
9076;SDS011;4574;51.072;17.174;2023-09-08T00:03:17;7.93;;;6.47;;
9076;SDS011;4574;51.072;17.174;2023-09-08T00:05:48;8.90;;;6.30;;
9076;SDS011;4574;51.072;17.174;2023-09-08T00:08:17;9.20;;;6.33;;
9076;SDS011;4574;51.072;17.174;2023-09-08T00:10:45;7.13;;;6.20;;
9076;SDS011;4574;51.072;17.174;2023-09-08T00:13:14;9.70;;;6.10;;
9076;SDS011;4574;51.072;17.174;2023-09-08T00:15:43;9.90;;;6.40;;
9076;SDS011;4574;51.072;17.174;2023-09-08T00:18:12;7.77;;;6.07;;
9076;SDS011;4574;51.072;17.174;2023-09-08T00:20:42;6.73;;;5.97;;
9076;SDS011;4574;51.072;17.174;2023-09-08T00:23:11;7.40;;;6.30;;
9076;SDS011;4574;51.072;17.174;2023-09-08T00:25:40;7.77;;;6.13;;
9076;SDS011;4574;51.072;17.174;2023-09-08T00:28:08;7.60;;;5.93;;
9076;SDS011;4574;51.072;17.174;2023-09-08T00:30:37;8.67;;;6.67;;
9076;SDS011;4574;51.072;17.174;2023-09-08T00:33:05;8.37;;;6.40;;
9076;SDS011;4574;51.072;17.174;2023-09-08T00:35:35;6.70;;;5.73;;
9076;SDS011;4574;51.072;17.174;2023-09-08T00:41:47;10.47;;;6.33;;
9076;SDS011;4574;51.072;17.174;2023-09-08T00:44:16;7.30;;;6.33;;
9076;SDS011;4574;51.072;17.174;2023-09-08T00:46:44;9.97;;;6.60;;
9076;SDS011;4574;51.072;17.174;2023-09-08T00:49:13;10.33;;;6.80;;
9076;SDS011;4574;51.072;17.174;2023-09-08T00:51:42;8.57;;;6.93;;
9076;SDS011;4574;51.072;17.174;2023-09-08T00:54:10;10.43;;;6.67;;
9076;SDS011;4574;51.072;17.174;2023-09-08T00:56:39;8.37;;;6.13;;
9076;SDS011;4574;51.072;17.174;2023-09-08T00:59:09;9.80;;;6.20;;
9076;SDS011;4574;51.072;17.174;2023-09-08T01:01:38;8.37;;;6.50;;
9076;SDS011;4574;51.072;17.174;2023-09-08T01:04:06;12.13;;;6.80;;
9076;SDS011;4574;51.072;17.174;2023-09-08T01:06:35;10.57;;;7.47;;
9076;SDS011;4574;51.072;17.174;2023-09-08T01:09:04;7.07;;;6.27;;
9076;SDS011;4574;51.072;17.174;2023-09-08T01:11:33;9.37;;;6.77;;
9076;SDS011;4574;51.072;17.174;2023-09-08T01:14:02;8.73;;;6.30;;
9076;SDS011;4574;51.072;17.174;2023-09-08T01:16:32;7.17;;;6.43;;
9076;SDS011;4574;51.072;17.174;2023-09-08T01:19:00;8.83;;;7.03;;
9076;SDS011;4574;51.072;17.174;2023-09-08T01:21:40;8.60;;;6.60;;
9076;SDS011;4574;51.072;17.174;2023-09-08T01:24:37;7.53;;;6.30;;
9076;SDS011;4574;51.072;17.174;2023-09-08T01:27:26;9.37;;;6.40;;
9076;SDS011;4574;51.072;17.174;2023-09-08T01:29:57;7.53;;;6.73;;
9076;SDS011;4574;51.072;17.174;2023-09-08T01:32:27;7.77;;;6.97;;
9076;SDS011;4574;51.072;17.174;2023-09-08T01:34:57;7.93;;;6.30;;
9076;SDS011;4574;51.072;17.174;2023-09-08T01:37:27;7.80;;;6.30;;
9076;SDS011;4574;51.072;17.174;2023-09-08T01:39:57;9.00;;;6.57;;
9076;SDS011;4574;51.072;17.174;2023-09-08T01:42:26;10.13;;;6.97;;
9076;SDS011;4574;51.072;17.174;2023-09-08T01:44:54;8.37;;;6.77;;
9076;SDS011;4574;51.072;17.174;2023-09-08T01:47:23;8.97;;;6.50;;
9076;SDS011;4574;51.072;17.174;2023-09-08T01:49:52;9.57;;;7.27;;
9076;SDS011;4574;51.072;17.174;2023-09-08T01:52:21;9.00;;;6.37;;
9076;SDS011;4574;51.072;17.174;2023-09-08T01:54:49;8.73;;;7.00;;
9076;SDS011;4574;51.072;17.174;2023-09-08T01:57:19;8.67;;;6.80;;
9076;SDS011;4574;51.072;17.174;2023-09-08T01:59:47;8.70;;;6.67;;
9076;SDS011;4574;51.072;17.174;2023-09-08T02:02:16;10.53;;;6.30;;
9076;SDS011;4574;51.072;17.174;2023-09-08T02:04:44;8.90;;;6.67;;
9076;SDS011;4574;51.072;17.174;2023-09-08T02:07:13;8.67;;;6.13;;
9076;SDS011;4574;51.072;17.174;2023-09-08T02:09:41;7.90;;;6.50;;
9076;SDS011;4574;51.072;17.174;2023-09-08T02:12:10;10.07;;;7.00;;
9076;SDS011;4574;51.072;17.174;2023-09-08T02:14:40;8.30;;;7.10;;
9076;SDS011;4574;51.072;17.174;2023-09-08T02:17:08;11.00;;;7.00;;
9076;SDS011;4574;51.072;17.174;2023-09-08T02:19:37;9.07;;;6.60;;
9076;SDS011;4574;51.072;17.174;2023-09-08T02:22:06;8.57;;;6.67;;
9076;SDS011;4574;51.072;17.174;2023-09-08T02:24:34;9.17;;;6.50;;
9076;SDS011;4574;51.072;17.174;2023-09-08T02:27:03;9.30;;;7.33;;
9076;SDS011;4574;51.072;17.174;2023-09-08T02:29:32;8.73;;;6.97;;
9076;SDS011;4574;51.072;17.174;2023-09-08T02:32:02;12.00;;;7.20;;
9076;SDS011;4574;51.072;17.174;2023-09-08T02:34:33;8.83;;;6.97;;
9076;SDS011;4574;51.072;17.174;2023-09-08T02:37:03;12.53;;;7.47;;
9076;SDS011;4574;51.072;17.174;2023-09-08T02:39:32;8.37;;;6.63;;
9076;SDS011;4574;51.072;17.174;2023-09-08T02:42:01;7.77;;;6.97;;
9076;SDS011;4574;51.072;17.174;2023-09-08T02:44:29;9.60;;;6.50;;
9076;SDS011;4574;51.072;17.174;2023-09-08T02:46:58;9.53;;;6.73;;
9076;SDS011;4574;51.072;17.174;2023-09-08T02:49:28;8.17;;;6.50;;
9076;SDS011;4574;51.072;17.174;2023-09-08T02:51:57;7.20;;;6.50;;
9076;SDS011;4574;51.072;17.174;2023-09-08T02:54:26;7.03;;;6.30;;
9076;SDS011;4574;51.072;17.174;2023-09-08T02:56:54;7.43;;;6.40;;
9076;SDS011;4574;51.072;17.174;2023-09-08T02:59:23;10.33;;;6.50;;
9076;SDS011;4574;51.072;17.174;2023-09-08T03:01:51;8.40;;;6.77;;
9076;SDS011;4574;51.072;17.174;2023-09-08T03:04:20;12.10;;;6.77;;
9076;SDS011;4574;51.072;17.174;2023-09-08T03:06:50;9.67;;;7.30;;
9076;SDS011;4574;51.072;17.174;2023-09-08T03:09:18;8.40;;;6.47;;
9076;SDS011;4574;51.072;17.174;2023-09-08T03:11:46;7.73;;;6.93;;
9076;SDS011;4574;51.072;17.174;2023-09-08T03:14:15;9.50;;;6.43;;
9076;SDS011;4574;51.072;17.174;2023-09-08T03:16:43;8.17;;;6.70;;
9076;SDS011;4574;51.072;17.174;2023-09-08T03:19:12;10.83;;;6.90;;
9076;SDS011;4574;51.072;17.174;2023-09-08T03:21:40;9.33;;;7.70;;
9076;SDS011;4574;51.072;17.174;2023-09-08T03:24:11;11.40;;;6.97;;
9076;SDS011;4574;51.072;17.174;2023-09-08T03:26:39;7.07;;;6.37;;
9076;SDS011;4574;51.072;17.174;2023-09-08T03:29:08;9.27;;;5.93;;
9076;SDS011;4574;51.072;17.174;2023-09-08T03:31:36;9.10;;;6.23;;
9076;SDS011;4574;51.072;17.174;2023-09-08T03:34:06;9.63;;;6.93;;
9076;SDS011;4574;51.072;17.174;2023-09-08T03:36:34;10.93;;;7.10;;
9076;SDS011;4574;51.072;17.174;2023-09-08T03:39:04;9.57;;;6.67;;
9076;SDS011;4574;51.072;17.174;2023-09-08T03:41:35;9.30;;;6.90;;
9076;SDS011;4574;51.072;17.174;2023-09-08T03:44:03;8.23;;;7.10;;
9076;SDS011;4574;51.072;17.174;2023-09-08T03:46:32;8.53;;;7.33;;
9076;SDS011;4574;51.072;17.174;2023-09-08T03:49:01;12.30;;;8.53;;
9076;SDS011;4574;51.072;17.174;2023-09-08T03:51:30;13.53;;;8.37;;
9076;SDS011;4574;51.072;17.174;2023-09-08T03:53:58;10.83;;;7.73;;
9076;SDS011;4574;51.072;17.174;2023-09-08T03:56:27;9.97;;;7.33;;
9076;SDS011;4574;51.072;17.174;2023-09-08T03:58:57;13.17;;;7.27;;
9076;SDS011;4574;51.072;17.174;2023-09-08T04:01:25;13.20;;;8.27;;
9076;SDS011;4574;51.072;17.174;2023-09-08T04:03:54;9.37;;;7.20;;
9076;SDS011;4574;51.072;17.174;2023-09-08T04:06:22;10.20;;;7.57;;
9076;SDS011;4574;51.072;17.174;2023-09-08T04:08:51;11.93;;;8.37;;
9076;SDS011;4574;51.072;17.174;2023-09-08T04:11:19;9.77;;;7.37;;
9076;SDS011;4574;51.072;17.174;2023-09-08T04:13:48;11.13;;;7.70;;
9076;SDS011;4574;51.072;17.174;2023-09-08T04:16:18;13.20;;;8.37;;
9076;SDS011;4574;51.072;17.174;2023-09-08T04:18:46;9.73;;;7.67;;
9076;SDS011;4574;51.072;17.174;2023-09-08T04:21:15;13.47;;;7.13;;
9076;SDS011;4574;51.072;17.174;2023-09-08T04:23:44;13.13;;;8.33;;
9076;SDS011;4574;51.072;17.174;2023-09-08T04:26:13;10.97;;;7.63;;
9076;SDS011;4574;51.072;17.174;2023-09-08T04:28:41;8.57;;;7.00;;
9076;SDS011;4574;51.072;17.174;2023-09-08T04:31:10;11.77;;;7.80;;
9076;SDS011;4574;51.072;17.174;2023-09-08T04:33:40;9.67;;;7.70;;
9076;SDS011;4574;51.072;17.174;2023-09-08T04:36:09;11.43;;;8.20;;
9076;SDS011;4574;51.072;17.174;2023-09-08T04:38:37;10.50;;;7.97;;
9076;SDS011;4574;51.072;17.174;2023-09-08T04:41:08;11.93;;;8.17;;
9076;SDS011;4574;51.072;17.174;2023-09-08T04:43:37;12.27;;;8.10;;
9076;SDS011;4574;51.072;17.174;2023-09-08T04:46:05;11.80;;;8.13;;
9076;SDS011;4574;51.072;17.174;2023-09-08T04:48:35;11.67;;;8.57;;
9076;SDS011;4574;51.072;17.174;2023-09-08T04:51:08;11.30;;;8.57;;
9076;SDS011;4574;51.072;17.174;2023-09-08T04:53:36;10.97;;;8.70;;
9076;SDS011;4574;51.072;17.174;2023-09-08T04:56:05;16.80;;;8.63;;
9076;SDS011;4574;51.072;17.174;2023-09-08T04:58:36;9.80;;;7.77;;
9076;SDS011;4574;51.072;17.174;2023-09-08T05:01:04;13.30;;;7.90;;
9076;SDS011;4574;51.072;17.174;2023-09-08T05:03:36;15.07;;;8.20;;
9076;SDS011;4574;51.072;17.174;2023-09-08T05:06:05;9.20;;;8.20;;
9076;SDS011;4574;51.072;17.174;2023-09-08T05:08:38;9.90;;;8.23;;
9076;SDS011;4574;51.072;17.174;2023-09-08T05:11:06;9.83;;;8.60;;
9076;SDS011;4574;51.072;17.174;2023-09-08T05:13:35;14.97;;;8.67;;
9076;SDS011;4574;51.072;17.174;2023-09-08T05:16:04;10.30;;;8.60;;
9076;SDS011;4574;51.072;17.174;2023-09-08T05:18:39;12.00;;;9.70;;
9076;SDS011;4574;51.072;17.174;2023-09-08T05:21:08;14.47;;;9.93;;
9076;SDS011;4574;51.072;17.174;2023-09-08T05:23:38;12.00;;;9.83;;
9076;SDS011;4574;51.072;17.174;2023-09-08T05:26:06;14.93;;;10.67;;
9076;SDS011;4574;51.072;17.174;2023-09-08T05:28:35;20.03;;;11.50;;
9076;SDS011;4574;51.072;17.174;2023-09-08T05:31:05;16.40;;;11.23;;
9076;SDS011;4574;51.072;17.174;2023-09-08T05:33:34;14.50;;;10.17;;
9076;SDS011;4574;51.072;17.174;2023-09-08T05:36:02;14.20;;;11.37;;
9076;SDS011;4574;51.072;17.174;2023-09-08T05:38:31;14.80;;;11.17;;
9076;SDS011;4574;51.072;17.174;2023-09-08T05:41:01;13.17;;;11.67;;
9076;SDS011;4574;51.072;17.174;2023-09-08T05:43:31;13.57;;;11.17;;
9076;SDS011;4574;51.072;17.174;2023-09-08T05:46:00;16.10;;;12.40;;
9076;SDS011;4574;51.072;17.174;2023-09-08T05:48:28;16.57;;;10.80;;
9076;SDS011;4574;51.072;17.174;2023-09-08T05:50:57;12.97;;;11.50;;
9076;SDS011;4574;51.072;17.174;2023-09-08T05:53:26;18.13;;;11.33;;
9076;SDS011;4574;51.072;17.174;2023-09-08T05:55:56;14.83;;;10.90;;
9076;SDS011;4574;51.072;17.174;2023-09-08T05:58:26;12.63;;;11.10;;
9076;SDS011;4574;51.072;17.174;2023-09-08T06:00:55;16.40;;;11.47;;
9076;SDS011;4574;51.072;17.174;2023-09-08T06:03:23;18.00;;;13.43;;
9076;SDS011;4574;51.072;17.174;2023-09-08T06:05:52;14.93;;;11.10;;
9076;SDS011;4574;51.072;17.174;2023-09-08T06:08:21;12.30;;;10.77;;
9076;SDS011;4574;51.072;17.174;2023-09-08T06:10:49;12.90;;;11.07;;
9076;SDS011;4574;51.072;17.174;2023-09-08T06:13:18;14.27;;;11.43;;
9076;SDS011;4574;51.072;17.174;2023-09-08T06:15:48;16.37;;;11.63;;
9076;SDS011;4574;51.072;17.174;2023-09-08T06:18:16;14.27;;;11.17;;
9076;SDS011;4574;51.072;17.174;2023-09-08T06:20:45;18.07;;;11.37;;
9076;SDS011;4574;51.072;17.174;2023-09-08T06:23:14;15.33;;;12.07;;
9076;SDS011;4574;51.072;17.174;2023-09-08T06:25:42;16.13;;;11.83;;
9076;SDS011;4574;51.072;17.174;2023-09-08T06:28:11;13.33;;;11.80;;
9076;SDS011;4574;51.072;17.174;2023-09-08T06:30:39;16.60;;;11.70;;
9076;SDS011;4574;51.072;17.174;2023-09-08T06:33:10;14.10;;;10.80;;
9076;SDS011;4574;51.072;17.174;2023-09-08T06:35:39;16.37;;;11.47;;
9076;SDS011;4574;51.072;17.174;2023-09-08T06:38:07;14.73;;;10.80;;
9076;SDS011;4574;51.072;17.174;2023-09-08T06:40:36;15.23;;;11.53;;
9076;SDS011;4574;51.072;17.174;2023-09-08T06:43:05;15.50;;;11.43;;
9076;SDS011;4574;51.072;17.174;2023-09-08T06:45:34;15.67;;;11.63;;
9076;SDS011;4574;51.072;17.174;2023-09-08T06:48:05;18.13;;;12.63;;
9076;SDS011;4574;51.072;17.174;2023-09-08T06:50:36;13.80;;;11.40;;
9076;SDS011;4574;51.072;17.174;2023-09-08T06:53:04;18.17;;;13.03;;
9076;SDS011;4574;51.072;17.174;2023-09-08T06:55:33;19.80;;;11.80;;
9076;SDS011;4574;51.072;17.174;2023-09-08T06:58:01;15.67;;;12.50;;
9076;SDS011;4574;51.072;17.174;2023-09-08T07:00:30;15.33;;;12.37;;
9076;SDS011;4574;51.072;17.174;2023-09-08T07:02:59;17.10;;;12.57;;
9076;SDS011;4574;51.072;17.174;2023-09-08T07:05:29;17.97;;;12.87;;
9076;SDS011;4574;51.072;17.174;2023-09-08T07:07:59;16.93;;;12.77;;
9076;SDS011;4574;51.072;17.174;2023-09-08T07:10:27;18.90;;;12.57;;
9076;SDS011;4574;51.072;17.174;2023-09-08T07:12:56;18.93;;;12.10;;
9076;SDS011;4574;51.072;17.174;2023-09-08T07:15:25;15.93;;;12.43;;
9076;SDS011;4574;51.072;17.174;2023-09-08T07:17:53;15.27;;;12.27;;
9076;SDS011;4574;51.072;17.174;2023-09-08T07:20:22;17.53;;;12.30;;
9076;SDS011;4574;51.072;17.174;2023-09-08T07:22:50;19.13;;;13.23;;
9076;SDS011;4574;51.072;17.174;2023-09-08T07:25:20;16.90;;;12.53;;
9076;SDS011;4574;51.072;17.174;2023-09-08T07:27:49;18.47;;;12.73;;
9076;SDS011;4574;51.072;17.174;2023-09-08T07:30:19;17.63;;;12.33;;
9076;SDS011;4574;51.072;17.174;2023-09-08T07:32:48;18.53;;;13.00;;
9076;SDS011;4574;51.072;17.174;2023-09-08T07:35:17;16.50;;;12.40;;
9076;SDS011;4574;51.072;17.174;2023-09-08T07:37:46;16.10;;;12.60;;
9076;SDS011;4574;51.072;17.174;2023-09-08T07:40:15;18.93;;;12.73;;
9076;SDS011;4574;51.072;17.174;2023-09-08T07:42:45;21.77;;;12.93;;
9076;SDS011;4574;51.072;17.174;2023-09-08T07:45:14;17.03;;;12.13;;
9076;SDS011;4574;51.072;17.174;2023-09-08T07:47:43;15.80;;;12.27;;
9076;SDS011;4574;51.072;17.174;2023-09-08T07:50:19;16.73;;;12.27;;
9076;SDS011;4574;51.072;17.174;2023-09-08T07:52:49;13.43;;;10.23;;
9076;SDS011;4574;51.072;17.174;2023-09-08T07:55:19;16.67;;;10.97;;
9076;SDS011;4574;51.072;17.174;2023-09-08T07:57:51;15.40;;;11.87;;
9076;SDS011;4574;51.072;17.174;2023-09-08T08:00:19;13.57;;;10.63;;
9076;SDS011;4574;51.072;17.174;2023-09-08T08:02:49;13.43;;;10.30;;
9076;SDS011;4574;51.072;17.174;2023-09-08T08:05:18;16.13;;;11.43;;
9076;SDS011;4574;51.072;17.174;2023-09-08T08:07:47;12.43;;;10.83;;
9076;SDS011;4574;51.072;17.174;2023-09-08T08:10:16;13.00;;;10.10;;
9076;SDS011;4574;51.072;17.174;2023-09-08T08:12:45;14.13;;;10.50;;
9076;SDS011;4574;51.072;17.174;2023-09-08T08:15:16;12.97;;;11.17;;
9076;SDS011;4574;51.072;17.174;2023-09-08T08:17:48;15.37;;;11.03;;
9076;SDS011;4574;51.072;17.174;2023-09-08T08:20:17;15.73;;;11.27;;
9076;SDS011;4574;51.072;17.174;2023-09-08T08:22:46;14.27;;;9.80;;
9076;SDS011;4574;51.072;17.174;2023-09-08T08:25:14;13.57;;;10.10;;
9076;SDS011;4574;51.072;17.174;2023-09-08T08:27:43;11.90;;;9.20;;
9076;SDS011;4574;51.072;17.174;2023-09-08T08:30:12;12.43;;;9.10;;
9076;SDS011;4574;51.072;17.174;2023-09-08T08:32:42;15.73;;;10.00;;
9076;SDS011;4574;51.072;17.174;2023-09-08T08:35:11;11.07;;;9.10;;
9076;SDS011;4574;51.072;17.174;2023-09-08T08:37:39;12.40;;;9.67;;
9076;SDS011;4574;51.072;17.174;2023-09-08T08:40:09;16.30;;;10.60;;
9076;SDS011;4574;51.072;17.174;2023-09-08T08:42:39;11.23;;;9.30;;
9076;SDS011;4574;51.072;17.174;2023-09-08T08:45:09;14.13;;;8.80;;
9076;SDS011;4574;51.072;17.174;2023-09-08T08:47:38;12.10;;;8.63;;
9076;SDS011;4574;51.072;17.174;2023-09-08T08:50:10;11.37;;;9.10;;
9076;SDS011;4574;51.072;17.174;2023-09-08T08:52:40;11.13;;;9.00;;
9076;SDS011;4574;51.072;17.174;2023-09-08T08:55:09;12.40;;;9.33;;
9076;SDS011;4574;51.072;17.174;2023-09-08T08:57:38;13.80;;;8.90;;
9076;SDS011;4574;51.072;17.174;2023-09-08T09:00:08;13.50;;;8.73;;
9076;SDS011;4574;51.072;17.174;2023-09-08T09:02:39;16.43;;;9.90;;
9076;SDS011;4574;51.072;17.174;2023-09-08T09:05:14;12.20;;;10.20;;
9076;SDS011;4574;51.072;17.174;2023-09-08T09:07:43;11.33;;;8.90;;
9076;SDS011;4574;51.072;17.174;2023-09-08T09:10:12;11.30;;;8.70;;
9076;SDS011;4574;51.072;17.174;2023-09-08T09:12:42;108.53;;;68.37;;
9076;SDS011;4574;51.072;17.174;2023-09-08T09:15:10;55.40;;;32.50;;
9076;SDS011;4574;51.072;17.174;2023-09-08T09:17:40;33.33;;;20.80;;
9076;SDS011;4574;51.072;17.174;2023-09-08T09:20:14;42.27;;;26.00;;
9076;SDS011;4574;51.072;17.174;2023-09-08T09:22:44;17.97;;;12.33;;
9076;SDS011;4574;51.072;17.174;2023-09-08T09:25:20;11.87;;;9.27;;
9076;SDS011;4574;51.072;17.174;2023-09-08T09:27:51;11.47;;;8.97;;
9076;SDS011;4574;51.072;17.174;2023-09-08T09:30:20;13.00;;;8.33;;
9076;SDS011;4574;51.072;17.174;2023-09-08T09:32:58;10.37;;;8.27;;
9076;SDS011;4574;51.072;17.174;2023-09-08T09:35:41;11.00;;;8.23;;
9076;SDS011;4574;51.072;17.174;2023-09-08T09:38:11;7.80;;;6.57;;
9076;SDS011;4574;51.072;17.174;2023-09-08T09:40:41;10.90;;;7.87;;
9076;SDS011;4574;51.072;17.174;2023-09-08T09:43:10;9.80;;;7.57;;
9076;SDS011;4574;51.072;17.174;2023-09-08T09:45:39;9.07;;;6.97;;
9076;SDS011;4574;51.072;17.174;2023-09-08T09:48:09;13.20;;;8.10;;
9076;SDS011;4574;51.072;17.174;2023-09-08T09:50:39;9.87;;;7.43;;
9076;SDS011;4574;51.072;17.174;2023-09-08T09:53:11;10.00;;;7.33;;
9076;SDS011;4574;51.072;17.174;2023-09-08T09:55:41;7.60;;;6.73;;
9076;SDS011;4574;51.072;17.174;2023-09-08T09:58:11;9.43;;;7.07;;
9076;SDS011;4574;51.072;17.174;2023-09-08T10:00:41;9.77;;;7.50;;
9076;SDS011;4574;51.072;17.174;2023-09-08T10:03:15;8.67;;;7.00;;
9076;SDS011;4574;51.072;17.174;2023-09-08T10:05:45;10.50;;;6.67;;
9076;SDS011;4574;51.072;17.174;2023-09-08T10:08:17;10.23;;;6.93;;
9076;SDS011;4574;51.072;17.174;2023-09-08T10:10:46;12.10;;;7.20;;
9076;SDS011;4574;51.072;17.174;2023-09-08T10:13:18;10.80;;;6.53;;
9076;SDS011;4574;51.072;17.174;2023-09-08T10:15:55;9.67;;;7.10;;
9076;SDS011;4574;51.072;17.174;2023-09-08T10:18:26;7.90;;;6.87;;
9076;SDS011;4574;51.072;17.174;2023-09-08T10:20:57;8.50;;;6.93;;
9076;SDS011;4574;51.072;17.174;2023-09-08T10:23:33;8.43;;;6.60;;
9076;SDS011;4574;51.072;17.174;2023-09-08T10:26:05;8.20;;;6.40;;
9076;SDS011;4574;51.072;17.174;2023-09-08T10:28:37;12.07;;;7.07;;
9076;SDS011;4574;51.072;17.174;2023-09-08T10:31:06;8.97;;;6.17;;
9076;SDS011;4574;51.072;17.174;2023-09-08T10:33:40;11.47;;;7.10;;
9076;SDS011;4574;51.072;17.174;2023-09-08T10:36:11;14.23;;;7.70;;
9076;SDS011;4574;51.072;17.174;2023-09-08T10:38:42;13.97;;;7.40;;
9076;SDS011;4574;51.072;17.174;2023-09-08T10:41:27;10.37;;;6.37;;
9076;SDS011;4574;51.072;17.174;2023-09-08T10:44:01;9.67;;;6.33;;
9076;SDS011;4574;51.072;17.174;2023-09-08T10:46:31;9.90;;;7.00;;
9076;SDS011;4574;51.072;17.174;2023-09-08T10:49:02;10.70;;;6.07;;
9076;SDS011;4574;51.072;17.174;2023-09-08T10:51:34;8.57;;;6.30;;
9076;SDS011;4574;51.072;17.174;2023-09-08T10:54:05;7.93;;;5.70;;
9076;SDS011;4574;51.072;17.174;2023-09-08T10:56:47;7.97;;;6.60;;
9076;SDS011;4574;51.072;17.174;2023-09-08T10:59:22;9.10;;;6.10;;
9076;SDS011;4574;51.072;17.174;2023-09-08T11:01:55;6.63;;;5.57;;
9076;SDS011;4574;51.072;17.174;2023-09-08T11:04:24;7.90;;;5.80;;
9076;SDS011;4574;51.072;17.174;2023-09-08T11:06:56;8.40;;;6.43;;
9076;SDS011;4574;51.072;17.174;2023-09-08T11:09:26;6.67;;;5.27;;
9076;SDS011;4574;51.072;17.174;2023-09-08T11:11:55;13.90;;;5.43;;
9076;SDS011;4574;51.072;17.174;2023-09-08T11:14:25;8.17;;;5.80;;
9076;SDS011;4574;51.072;17.174;2023-09-08T11:16:54;5.93;;;4.73;;
9076;SDS011;4574;51.072;17.174;2023-09-08T11:19:38;9.73;;;4.77;;
9076;SDS011;4574;51.072;17.174;2023-09-08T11:22:11;6.20;;;4.70;;
9076;SDS011;4574;51.072;17.174;2023-09-08T11:24:42;6.03;;;4.23;;
9076;SDS011;4574;51.072;17.174;2023-09-08T11:27:11;7.50;;;4.60;;
9076;SDS011;4574;51.072;17.174;2023-09-08T11:29:40;6.00;;;5.13;;
9076;SDS011;4574;51.072;17.174;2023-09-08T11:32:09;6.57;;;4.60;;
9076;SDS011;4574;51.072;17.174;2023-09-08T11:34:38;6.10;;;4.87;;
9076;SDS011;4574;51.072;17.174;2023-09-08T11:37:08;5.77;;;4.80;;
9076;SDS011;4574;51.072;17.174;2023-09-08T11:39:37;6.40;;;4.87;;
9076;SDS011;4574;51.072;17.174;2023-09-08T11:42:08;5.67;;;4.80;;
9076;SDS011;4574;51.072;17.174;2023-09-08T11:44:39;6.13;;;4.67;;
9076;SDS011;4574;51.072;17.174;2023-09-08T11:47:09;5.07;;;4.00;;
9076;SDS011;4574;51.072;17.174;2023-09-08T11:49:39;5.03;;;3.90;;
9076;SDS011;4574;51.072;17.174;2023-09-08T11:52:08;8.17;;;4.80;;
9076;SDS011;4574;51.072;17.174;2023-09-08T11:54:37;5.83;;;4.10;;
9076;SDS011;4574;51.072;17.174;2023-09-08T11:57:27;7.13;;;3.77;;
9076;SDS011;4574;51.072;17.174;2023-09-08T11:59:57;5.93;;;3.77;;
9076;SDS011;4574;51.072;17.174;2023-09-08T12:02:26;3.80;;;3.43;;
9076;SDS011;4574;51.072;17.174;2023-09-08T12:04:55;6.00;;;3.57;;
9076;SDS011;4574;51.072;17.174;2023-09-08T12:07:23;4.50;;;3.60;;
9076;SDS011;4574;51.072;17.174;2023-09-08T12:09:52;4.90;;;4.20;;
9076;SDS011;4574;51.072;17.174;2023-09-08T12:12:21;4.37;;;3.77;;
9076;SDS011;4574;51.072;17.174;2023-09-08T12:14:52;4.53;;;3.40;;
9076;SDS011;4574;51.072;17.174;2023-09-08T12:17:20;3.93;;;3.10;;
9076;SDS011;4574;51.072;17.174;2023-09-08T12:19:51;5.47;;;3.37;;
9076;SDS011;4574;51.072;17.174;2023-09-08T12:22:20;5.53;;;3.40;;
9076;SDS011;4574;51.072;17.174;2023-09-08T12:24:49;5.13;;;3.50;;
9076;SDS011;4574;51.072;17.174;2023-09-08T12:27:25;3.87;;;3.13;;
9076;SDS011;4574;51.072;17.174;2023-09-08T12:29:57;4.23;;;3.10;;
9076;SDS011;4574;51.072;17.174;2023-09-08T12:32:28;5.97;;;3.20;;
9076;SDS011;4574;51.072;17.174;2023-09-08T12:34:58;7.07;;;3.37;;
9076;SDS011;4574;51.072;17.174;2023-09-08T12:37:28;7.90;;;4.70;;
9076;SDS011;4574;51.072;17.174;2023-09-08T12:39:58;16.60;;;7.13;;
9076;SDS011;4574;51.072;17.174;2023-09-08T12:42:27;22.97;;;8.30;;
9076;SDS011;4574;51.072;17.174;2023-09-08T12:45:01;10.33;;;6.47;;
9076;SDS011;4574;51.072;17.174;2023-09-08T12:47:29;5.10;;;4.03;;
9076;SDS011;4574;51.072;17.174;2023-09-08T12:49:58;31.33;;;12.67;;
9076;SDS011;4574;51.072;17.174;2023-09-08T12:52:26;8.03;;;4.30;;
9076;SDS011;4574;51.072;17.174;2023-09-08T12:54:55;4.40;;;3.67;;
9076;SDS011;4574;51.072;17.174;2023-09-08T12:57:23;4.20;;;3.10;;
9076;SDS011;4574;51.072;17.174;2023-09-08T12:59:52;3.70;;;3.40;;
9076;SDS011;4574;51.072;17.174;2023-09-08T13:02:22;4.40;;;3.27;;
9076;SDS011;4574;51.072;17.174;2023-09-08T13:04:51;4.83;;;3.13;;
9076;SDS011;4574;51.072;17.174;2023-09-08T13:07:21;3.63;;;3.33;;
9076;SDS011;4574;51.072;17.174;2023-09-08T13:09:50;3.83;;;3.10;;
9076;SDS011;4574;51.072;17.174;2023-09-08T13:12:19;4.47;;;3.23;;
9076;SDS011;4574;51.072;17.174;2023-09-08T13:14:47;3.37;;;3.07;;
9076;SDS011;4574;51.072;17.174;2023-09-08T13:17:16;4.57;;;3.10;;
9076;SDS011;4574;51.072;17.174;2023-09-08T13:19:46;4.10;;;3.17;;
9076;SDS011;4574;51.072;17.174;2023-09-08T13:22:15;7.83;;;3.23;;
9076;SDS011;4574;51.072;17.174;2023-09-08T13:24:43;4.67;;;2.90;;
9076;SDS011;4574;51.072;17.174;2023-09-08T13:27:12;3.60;;;2.70;;
9076;SDS011;4574;51.072;17.174;2023-09-08T13:29:42;3.33;;;2.97;;
9076;SDS011;4574;51.072;17.174;2023-09-08T13:32:10;3.83;;;2.73;;
9076;SDS011;4574;51.072;17.174;2023-09-08T13:34:39;2.87;;;2.60;;
9076;SDS011;4574;51.072;17.174;2023-09-08T13:37:12;3.07;;;2.77;;
9076;SDS011;4574;51.072;17.174;2023-09-08T13:39:41;3.20;;;2.90;;
9076;SDS011;4574;51.072;17.174;2023-09-08T13:42:10;4.00;;;3.03;;
9076;SDS011;4574;51.072;17.174;2023-09-08T13:44:38;8.33;;;4.40;;
9076;SDS011;4574;51.072;17.174;2023-09-08T13:47:07;3.37;;;2.90;;
9076;SDS011;4574;51.072;17.174;2023-09-08T13:49:36;3.37;;;3.07;;
9076;SDS011;4574;51.072;17.174;2023-09-08T13:52:07;3.27;;;2.93;;
9076;SDS011;4574;51.072;17.174;2023-09-08T13:54:39;3.60;;;3.10;;
9076;SDS011;4574;51.072;17.174;2023-09-08T13:57:10;4.63;;;2.87;;
9076;SDS011;4574;51.072;17.174;2023-09-08T13:59:40;3.67;;;3.27;;
9076;SDS011;4574;51.072;17.174;2023-09-08T14:02:09;3.07;;;2.83;;
9076;SDS011;4574;51.072;17.174;2023-09-08T14:04:40;4.87;;;3.80;;
9076;SDS011;4574;51.072;17.174;2023-09-08T14:07:12;7.60;;;3.23;;
9076;SDS011;4574;51.072;17.174;2023-09-08T14:09:48;6.37;;;3.77;;
9076;SDS011;4574;51.072;17.174;2023-09-08T14:12:30;5.27;;;3.37;;
9076;SDS011;4574;51.072;17.174;2023-09-08T14:15:01;4.17;;;3.47;;
9076;SDS011;4574;51.072;17.174;2023-09-08T14:17:29;4.57;;;3.10;;
9076;SDS011;4574;51.072;17.174;2023-09-08T14:19:58;4.50;;;2.90;;
9076;SDS011;4574;51.072;17.174;2023-09-08T14:22:27;4.47;;;2.97;;
9076;SDS011;4574;51.072;17.174;2023-09-08T14:24:57;5.57;;;3.33;;
9076;SDS011;4574;51.072;17.174;2023-09-08T14:27:25;4.97;;;3.37;;
9076;SDS011;4574;51.072;17.174;2023-09-08T14:29:54;3.50;;;3.10;;
9076;SDS011;4574;51.072;17.174;2023-09-08T14:32:22;5.53;;;3.50;;
9076;SDS011;4574;51.072;17.174;2023-09-08T14:34:51;9.43;;;3.20;;
9076;SDS011;4574;51.072;17.174;2023-09-08T14:37:20;4.43;;;3.17;;
9076;SDS011;4574;51.072;17.174;2023-09-08T14:39:49;3.53;;;3.23;;
9076;SDS011;4574;51.072;17.174;2023-09-08T14:42:19;3.40;;;3.10;;
9076;SDS011;4574;51.072;17.174;2023-09-08T14:44:47;5.70;;;3.53;;
9076;SDS011;4574;51.072;17.174;2023-09-08T14:47:18;4.40;;;3.67;;
9076;SDS011;4574;51.072;17.174;2023-09-08T14:49:46;4.27;;;3.30;;
9076;SDS011;4574;51.072;17.174;2023-09-08T14:52:15;4.93;;;3.53;;
9076;SDS011;4574;51.072;17.174;2023-09-08T14:54:47;4.17;;;3.50;;
9076;SDS011;4574;51.072;17.174;2023-09-08T14:57:16;3.80;;;3.40;;
9076;SDS011;4574;51.072;17.174;2023-09-08T14:59:46;3.47;;;3.17;;
9076;SDS011;4574;51.072;17.174;2023-09-08T15:02:15;5.30;;;3.17;;
9076;SDS011;4574;51.072;17.174;2023-09-08T15:04:43;7.30;;;3.33;;
9076;SDS011;4574;51.072;17.174;2023-09-08T15:07:12;5.03;;;3.50;;
9076;SDS011;4574;51.072;17.174;2023-09-08T15:09:40;4.60;;;3.60;;
9076;SDS011;4574;51.072;17.174;2023-09-08T15:12:09;3.53;;;3.20;;